Time;durP1;ratioP1;P1;durP2;ratioP2;P2;SDS_P1;SDS_P2;PMS_P1;PMS_P2;Temp;Humidity;BMP_temperature;BMP_pressure;BME280_temperature;BME280_humidity;BME280_pressure;Samples;Min_cycle;Max_cycle;Signal;HPM_P1;HPM_P2
2021/06/26 00:00:30;;;;;;;24.83;18.33;;;26.60;52.70;;;;;;5084682;28;20433;-72
2021/06/26 00:02:59;;;;;;;18.70;15.83;;;26.70;52.60;;;;;;5073392;28;20496;-72
2021/06/26 00:05:28;;;;;;;22.83;16.03;;;26.70;52.40;;;;;;5076386;28;20517;-72
2021/06/26 00:07:56;;;;;;;18.93;15.50;;;26.70;52.80;;;;;;5065372;28;20434;-71
2021/06/26 00:10:23;;;;;;;19.17;15.47;;;26.70;52.10;;;;;;5064550;28;20511;-71
2021/06/26 00:12:51;;;;;;;19.17;15.47;;;26.70;52.00;;;;;;5064382;28;20466;-72
2021/06/26 00:15:19;;;;;;;17.63;15.40;;;26.70;51.90;;;;;;5063682;28;20437;-71
2021/06/26 00:17:47;;;;;;;17.73;13.77;;;26.70;51.80;;;;;;5063922;28;20531;-72
2021/06/26 00:20:15;;;;;;;17.57;14.80;;;26.70;51.70;;;;;;5064424;28;20497;-71
2021/06/26 00:22:47;;;;;;;16.00;14.33;;;26.70;51.60;;;;;;5064517;28;20424;-72
2021/06/26 00:25:15;;;;;;;16.53;14.17;;;26.70;51.50;;;;;;5064024;28;20461;-72
2021/06/26 00:27:43;;;;;;;17.57;14.40;;;26.70;51.40;;;;;;5064099;28;20456;-71
2021/06/26 00:30:12;;;;;;;17.00;14.60;;;26.70;51.30;;;;;;5064962;28;20424;-72
2021/06/26 00:32:42;;;;;;;16.60;14.17;;;26.70;51.30;;;;;;5064137;28;20498;-72
2021/06/26 00:35:11;;;;;;;14.23;12.73;;;26.70;51.20;;;;;;5072599;28;20429;-72
2021/06/26 00:37:39;;;;;;;14.90;13.40;;;26.70;51.20;;;;;;5079481;28;20475;-72
2021/06/26 00:40:10;;;;;;;17.13;14.67;;;26.70;51.20;;;;;;5075752;28;20524;-71
2021/06/26 00:42:39;;;;;;;16.87;14.00;;;26.70;51.10;;;;;;5063678;28;20441;-72
2021/06/26 00:45:08;;;;;;;15.60;13.93;;;26.70;51.00;;;;;;5063639;28;20458;-72
2021/06/26 00:47:36;;;;;;;16.40;14.50;;;26.70;51.00;;;;;;5063982;28;20438;-72
2021/06/26 00:50:04;;;;;;;14.90;13.30;;;26.70;51.00;;;;;;5064040;28;20507;-72
2021/06/26 00:52:32;;;;;;;15.20;13.60;;;26.70;50.90;;;;;;5063613;28;20472;-72
2021/06/26 00:55:00;;;;;;;15.60;13.90;;;26.70;50.90;;;;;;5063803;28;20504;-71
2021/06/26 00:57:29;;;;;;;15.40;13.70;;;26.70;50.90;;;;;;5064178;28;20469;-71
2021/06/26 00:59:57;;;;;;;15.80;14.20;;;26.60;50.80;;;;;;5063676;28;20412;-72
2021/06/26 01:02:25;;;;;;;17.33;13.57;;;26.60;50.80;;;;;;5063752;28;20497;-72
2021/06/26 01:04:52;;;;;;;16.13;12.80;;;26.60;50.80;;;;;;5063792;28;20507;-72
2021/06/26 01:07:20;;;;;;;14.47;12.97;;;26.60;50.70;;;;;;5064642;28;20495;-72
2021/06/26 01:09:48;;;;;;;15.00;13.40;;;26.60;50.70;;;;;;5066743;28;20561;-72
2021/06/26 01:12:16;;;;;;;15.63;13.97;;;26.60;50.60;;;;;;5063322;28;20532;-73
2021/06/26 01:14:45;;;;;;;15.87;14.17;;;26.60;50.60;;;;;;5063936;28;20465;-71
2021/06/26 01:17:13;;;;;;;14.40;12.90;;;26.60;50.60;;;;;;5063919;28;20542;-72
2021/06/26 01:19:41;;;;;;;15.87;13.80;;;26.60;50.60;;;;;;5063965;28;20461;-72
2021/06/26 01:22:09;;;;;;;15.40;13.03;;;26.60;50.50;;;;;;5063777;28;20455;-71
2021/06/26 01:24:38;;;;;;;16.43;13.87;;;26.60;50.60;;;;;;5063797;28;20415;-72
2021/06/26 01:27:06;;;;;;;14.90;13.30;;;26.60;50.50;;;;;;5079090;28;20479;-72
2021/06/26 01:29:34;;;;;;;15.50;13.90;;;26.60;50.50;;;;;;5083809;28;20498;-71
2021/06/26 01:32:02;;;;;;;14.40;12.90;;;26.60;50.50;;;;;;5083088;28;20468;-72
2021/06/26 01:34:29;;;;;;;15.70;14.00;;;26.60;50.40;;;;;;5083167;28;20429;-72
2021/06/26 01:36:57;;;;;;;14.60;13.10;;;26.60;50.40;;;;;;5079219;28;20457;-72
2021/06/26 01:39:25;;;;;;;14.83;13.27;;;26.60;50.40;;;;;;5083555;28;20423;-71
2021/06/26 01:41:54;;;;;;;16.07;14.20;;;26.50;50.30;;;;;;5083161;28;20432;-71
2021/06/26 01:44:22;;;;;;;14.63;13.13;;;26.60;50.40;;;;;;5063512;28;20409;-72
2021/06/26 01:46:51;;;;;;;15.70;14.00;;;26.50;50.30;;;;;;5063111;28;20514;-72
2021/06/26 01:49:19;;;;;;;15.27;13.70;;;26.50;50.30;;;;;;5063203;28;20401;-71
2021/06/26 01:51:47;;;;;;;15.23;13.27;;;26.50;50.20;;;;;;5062814;28;20464;-72
2021/06/26 01:54:15;;;;;;;15.53;13.93;;;26.50;50.20;;;;;;5063293;28;20423;-72
2021/06/26 01:56:43;;;;;;;16.93;13.53;;;26.50;50.20;;;;;;5062991;28;20474;-72
2021/06/26 01:59:12;;;;;;;14.80;13.30;;;26.50;50.20;;;;;;5062236;28;20477;-71
2021/06/26 02:01:40;;;;;;;15.60;13.60;;;26.50;50.20;;;;;;5076934;28;20529;-72
2021/06/26 02:04:08;;;;;;;14.60;13.10;;;26.40;50.20;;;;;;5077874;28;20410;-72
2021/06/26 02:06:36;;;;;;;15.30;13.53;;;26.40;50.20;;;;;;5082717;28;20474;-72
2021/06/26 02:09:06;;;;;;;14.47;13.07;;;26.40;50.20;;;;;;5074363;28;20472;-71
2021/06/26 02:11:34;;;;;;;14.07;12.60;;;26.40;50.20;;;;;;5077278;28;20447;-72
2021/06/26 02:14:01;;;;;;;15.00;13.40;;;26.40;50.20;;;;;;5078909;28;20510;-72
2021/06/26 02:16:31;;;;;;;15.67;13.47;;;26.40;50.20;;;;;;5081691;28;20506;-72
2021/06/26 02:18:59;;;;;;;15.13;13.63;;;26.40;50.10;;;;;;5082296;28;20499;-72
2021/06/26 02:21:26;;;;;;;15.73;13.50;;;26.40;50.20;;;;;;5077161;28;20492;-74
2021/06/26 02:23:54;;;;;;;15.47;13.77;;;26.40;50.20;;;;;;5070344;28;20416;-74
2021/06/26 02:26:22;;;;;;;15.80;13.53;;;26.30;50.10;;;;;;5062195;28;20507;-74
2021/06/26 02:28:50;;;;;;;13.80;12.40;;;26.30;50.10;;;;;;5060596;28;20443;-74
2021/06/26 02:31:18;;;;;;;14.67;13.10;;;26.30;50.10;;;;;;5061985;28;20516;-74
2021/06/26 02:33:48;;;;;;;15.00;12.43;;;26.30;50.10;;;;;;5062674;28;20408;-74
2021/06/26 02:36:15;;;;;;;15.93;13.47;;;26.30;50.10;;;;;;5063146;28;20503;-74
2021/06/26 02:38:43;;;;;;;16.67;13.47;;;26.30;50.10;;;;;;5063661;28;20446;-75
2021/06/26 02:41:11;;;;;;;14.97;13.37;;;26.30;50.10;;;;;;5066444;28;20433;-75
2021/06/26 02:43:39;;;;;;;15.57;13.97;;;26.30;50.10;;;;;;5066121;28;20430;-75
2021/06/26 02:46:07;;;;;;;13.90;12.40;;;26.20;50.00;;;;;;5066380;28;20491;-75
2021/06/26 02:48:35;;;;;;;15.27;13.33;;;26.30;50.10;;;;;;5066288;28;20401;-75
2021/06/26 02:51:05;;;;;;;14.50;13.00;;;26.30;50.10;;;;;;5066236;28;20443;-75
2021/06/26 02:53:33;;;;;;;14.77;13.27;;;26.30;50.00;;;;;;5061152;28;20553;-75
2021/06/26 02:56:01;;;;;;;14.00;12.53;;;26.20;50.00;;;;;;5065992;28;20436;-75
2021/06/26 02:58:29;;;;;;;16.00;13.23;;;26.20;50.00;;;;;;5065946;28;20531;-75
2021/06/26 03:00:57;;;;;;;15.50;12.90;;;26.20;50.00;;;;;;5079339;28;20525;-75
2021/06/26 03:03:25;;;;;;;14.97;13.37;;;26.20;50.00;;;;;;5085495;28;20525;-75
2021/06/26 03:05:53;;;;;;;14.43;12.77;;;26.20;50.00;;;;;;5085734;28;20420;-75
2021/06/26 03:08:22;;;;;;;14.87;13.37;;;26.20;50.00;;;;;;5085997;28;20435;-75
2021/06/26 03:10:50;;;;;;;15.93;14.00;;;26.20;50.00;;;;;;5086239;28;20450;-75
2021/06/26 03:13:18;;;;;;;14.77;13.10;;;26.20;50.00;;;;;;5085786;28;20435;-75
2021/06/26 03:15:46;;;;;;;16.07;14.07;;;26.20;49.90;;;;;;5086052;28;20404;-75
2021/06/26 03:18:14;;;;;;;16.10;13.97;;;26.20;50.00;;;;;;5085725;28;20482;-75
2021/06/26 03:20:42;;;;;;;14.70;13.20;;;26.20;49.90;;;;;;5085635;28;20443;-75
2021/06/26 03:23:11;;;;;;;15.00;13.33;;;26.20;50.00;;;;;;5085897;28;20494;-75
2021/06/26 03:25:40;;;;;;;15.07;13.40;;;26.20;50.00;;;;;;5085597;28;20431;-75
2021/06/26 03:28:08;;;;;;;14.90;13.23;;;26.10;49.80;;;;;;5085579;28;20436;-75
2021/06/26 03:30:36;;;;;;;15.40;13.83;;;26.20;49.90;;;;;;5082980;28;20446;-74
2021/06/26 03:33:04;;;;;;;14.90;13.40;;;26.20;49.90;;;;;;5065486;28;20502;-75
2021/06/26 03:35:32;;;;;;;14.70;13.17;;;26.10;49.80;;;;;;5065438;28;20477;-74
2021/06/26 03:38:00;;;;;;;16.53;13.67;;;26.10;49.80;;;;;;5065025;28;20480;-74
2021/06/26 03:40:28;;;;;;;13.73;12.33;;;26.20;49.80;;;;;;5065339;28;20495;-75
2021/06/26 03:42:58;;;;;;;13.80;12.50;;;26.10;49.70;;;;;;5065394;28;20405;-75
2021/06/26 03:45:26;;;;;;;14.23;12.77;;;26.20;49.80;;;;;;5065216;28;20416;-74
2021/06/26 03:47:54;;;;;;;15.60;14.00;;;26.20;49.80;;;;;;5063746;28;20442;-75
2021/06/26 03:50:22;;;;;;;14.63;13.13;;;26.10;49.70;;;;;;5064524;28;20447;-75
2021/06/26 03:52:50;;;;;;;15.70;13.03;;;26.20;49.70;;;;;;5064886;28;20416;-75
2021/06/26 03:55:18;;;;;;;14.53;12.93;;;26.20;49.60;;;;;;5065534;28;20408;-75
2021/06/26 03:57:46;;;;;;;14.50;13.00;;;26.20;49.60;;;;;;5064674;28;20523;-74
2021/06/26 04:00:17;;;;;;;16.63;12.97;;;26.20;49.70;;;;;;5064625;28;20447;-75
2021/06/26 04:02:45;;;;;;;14.20;12.70;;;26.20;49.70;;;;;;5073938;28;20477;-75
2021/06/26 04:05:13;;;;;;;14.83;13.23;;;26.20;49.60;;;;;;5074882;28;20439;-75
2021/06/26 04:07:41;;;;;;;14.87;13.37;;;26.20;49.70;;;;;;5074630;28;20505;-75
2021/06/26 04:10:10;;;;;;;15.10;13.50;;;26.20;49.60;;;;;;5084184;28;20426;-75
2021/06/26 04:12:38;;;;;;;14.80;12.87;;;26.20;49.60;;;;;;5084924;28;20427;-74
2021/06/26 04:15:07;;;;;;;15.23;13.63;;;26.20;49.50;;;;;;5084573;28;20476;-75
2021/06/26 04:17:37;;;;;;;14.37;12.87;;;26.20;49.50;;;;;;5084583;28;20411;-75
2021/06/26 04:20:07;;;;;;;16.00;14.07;;;26.20;49.50;;;;;;5078571;28;20450;-75
2021/06/26 04:22:35;;;;;;;14.13;12.63;;;26.20;49.50;;;;;;5064383;28;20446;-75
2021/06/26 04:25:03;;;;;;;15.70;13.43;;;26.20;49.40;;;;;;5064807;28;20445;-75
2021/06/26 04:27:31;;;;;;;16.13;13.50;;;26.20;49.40;;;;;;5064430;28;20401;-75
2021/06/26 04:30:00;;;;;;;14.97;13.37;;;26.20;49.40;;;;;;5064510;28;20401;-75
2021/06/26 04:32:28;;;;;;;14.93;12.97;;;26.20;49.40;;;;;;5064414;28;20441;-75
2021/06/26 04:34:57;;;;;;;14.50;13.00;;;26.20;49.40;;;;;;5063991;28;20452;-75
2021/06/26 04:37:25;;;;;;;15.13;13.43;;;26.20;49.40;;;;;;5064453;28;20441;-75
2021/06/26 04:39:53;;;;;;;14.47;12.97;;;26.20;49.30;;;;;;5063609;28;20517;-75
2021/06/26 04:42:21;;;;;;;14.50;13.00;;;26.20;49.40;;;;;;5064250;28;20408;-75
2021/06/26 04:44:49;;;;;;;14.40;12.60;;;26.20;49.30;;;;;;5063740;28;20503;-75
2021/06/26 04:47:17;;;;;;;15.17;13.57;;;26.20;49.30;;;;;;5064225;28;20404;-75
2021/06/26 04:49:45;;;;;;;14.13;12.70;;;26.20;49.30;;;;;;5063700;28;20466;-75
2021/06/26 04:52:14;;;;;;;15.07;13.47;;;26.20;49.30;;;;;;5063975;28;20412;-75
2021/06/26 04:54:42;;;;;;;14.17;12.40;;;26.20;49.30;;;;;;5064005;28;20484;-75
2021/06/26 04:57:10;;;;;;;14.33;12.93;;;26.20;49.30;;;;;;5063816;28;20525;-74
2021/06/26 04:59:38;;;;;;;16.10;13.20;;;26.20;49.20;;;;;;5063521;28;20501;-75
2021/06/26 05:02:06;;;;;;;13.83;12.43;;;26.20;49.20;;;;;;5063194;28;20541;-75
2021/06/26 05:04:34;;;;;;;15.07;13.57;;;26.20;49.20;;;;;;5063877;28;20416;-75
2021/06/26 05:07:03;;;;;;;13.80;12.40;;;26.20;49.20;;;;;;5063248;28;20499;-75
2021/06/26 05:09:32;;;;;;;13.30;11.90;;;26.30;49.20;;;;;;5063764;28;20480;-74
2021/06/26 05:12:00;;;;;;;15.20;13.00;;;26.30;49.50;;;;;;5063437;28;20437;-75
2021/06/26 05:14:28;;;;;;;14.27;12.77;;;26.30;49.10;;;;;;5063625;28;20466;-74
2021/06/26 05:16:56;;;;;;;14.03;12.63;;;26.40;49.20;;;;;;5063347;28;20567;-74
2021/06/26 05:19:26;;;;;;;13.13;11.80;;;26.40;49.10;;;;;;5063182;28;20498;-74
2021/06/26 05:21:54;;;;;;;14.20;12.80;;;26.40;48.90;;;;;;5063447;28;20564;-74
2021/06/26 05:24:22;;;;;;;13.83;12.43;;;26.40;49.00;;;;;;5063875;28;20539;-74
2021/06/26 05:26:51;;;;;;;14.40;12.67;;;26.40;49.00;;;;;;5063290;28;20404;-74
2021/06/26 05:29:19;;;;;;;13.40;12.10;;;26.50;48.90;;;;;;5063490;28;20458;-74
2021/06/26 05:31:47;;;;;;;14.10;12.40;;;26.60;48.70;;;;;;5063671;28;20536;-74
2021/06/26 05:34:15;;;;;;;13.83;12.53;;;26.60;48.70;;;;;;5063291;28;20412;-74
2021/06/26 05:36:43;;;;;;;13.73;12.33;;;26.60;48.60;;;;;;5072518;28;20433;-74
2021/06/26 05:39:11;;;;;;;13.37;11.97;;;26.70;48.60;;;;;;5083003;28;20503;-74
2021/06/26 05:41:39;;;;;;;13.60;12.20;;;26.70;48.40;;;;;;5083251;28;20469;-74
2021/06/26 05:44:08;;;;;;;13.20;11.90;;;26.80;48.30;;;;;;5083283;28;20524;-74
2021/06/26 05:46:36;;;;;;;13.87;12.37;;;26.90;48.30;;;;;;5083757;28;20499;-74
2021/06/26 05:49:04;;;;;;;13.30;12.00;;;26.90;48.20;;;;;;5083775;28;20445;-74
2021/06/26 05:51:32;;;;;;;13.33;12.03;;;27.00;48.10;;;;;;5075979;28;20416;-74
2021/06/26 05:54:02;;;;;;;13.80;12.40;;;27.00;48.00;;;;;;5063552;28;20476;-74
2021/06/26 05:56:31;;;;;;;13.60;12.30;;;27.00;47.90;;;;;;5063171;28;20555;-74
2021/06/26 05:58:59;;;;;;;13.57;12.17;;;27.00;47.80;;;;;;5062494;28;20546;-74
2021/06/26 06:01:29;;;;;;;13.73;12.43;;;27.10;47.80;;;;;;5063002;28;20485;-74
2021/06/26 06:03:57;;;;;;;13.17;11.87;;;27.10;47.80;;;;;;5062746;28;20442;-74
2021/06/26 06:06:25;;;;;;;13.07;11.50;;;27.20;47.60;;;;;;5063023;28;20412;-74
2021/06/26 06:08:53;;;;;;;13.40;12.10;;;27.20;47.70;;;;;;5063062;28;20433;-74
2021/06/26 06:11:21;;;;;;;12.67;11.37;;;27.20;47.60;;;;;;5062886;28;20540;-74
2021/06/26 06:13:49;;;;;;;13.40;12.00;;;27.30;47.60;;;;;;5064558;28;20458;-74
2021/06/26 06:16:17;;;;;;;14.20;12.80;;;27.30;47.50;;;;;;5067136;28;20503;-74
2021/06/26 06:18:47;;;;;;;12.80;11.67;;;27.40;47.50;;;;;;5067070;28;20430;-74
2021/06/26 06:21:16;;;;;;;13.20;12.00;;;27.40;47.30;;;;;;5066436;28;20555;-74
2021/06/26 06:23:43;;;;;;;12.67;11.57;;;27.40;47.30;;;;;;5067339;28;20498;-74
2021/06/26 06:26:11;;;;;;;12.90;11.80;;;27.40;47.30;;;;;;5066700;28;20473;-74
2021/06/26 06:28:39;;;;;;;13.10;11.90;;;27.50;47.20;;;;;;5066815;28;20481;-74
2021/06/26 06:31:07;;;;;;;13.20;12.00;;;27.60;47.10;;;;;;5066751;28;20440;-74
2021/06/26 06:33:35;;;;;;;12.00;10.90;;;27.60;47.00;;;;;;5067117;28;20448;-74
2021/06/26 06:36:07;;;;;;;13.37;12.07;;;27.70;47.00;;;;;;5066031;28;20447;-74
2021/06/26 06:38:35;;;;;;;13.10;11.80;;;27.70;46.90;;;;;;5066205;28;20442;-74
2021/06/26 06:41:03;;;;;;;12.27;11.17;;;27.70;47.00;;;;;;5066427;28;20469;-74
2021/06/26 06:43:31;;;;;;;12.10;10.97;;;27.80;46.80;;;;;;5066316;28;20430;-74
2021/06/26 06:45:59;;;;;;;12.57;11.47;;;27.80;46.80;;;;;;5066586;28;20508;-74
2021/06/26 06:48:28;;;;;;;12.33;11.30;;;27.90;46.70;;;;;;5066437;28;20430;-74
2021/06/26 06:50:55;;;;;;;12.60;11.50;;;28.00;46.50;;;;;;5066409;28;20560;-74
2021/06/26 06:53:25;;;;;;;13.27;12.07;;;28.10;47.00;;;;;;5065976;28;20467;-74
2021/06/26 06:55:55;;;;;;;12.20;11.10;;;28.10;46.40;;;;;;5075753;28;20479;-74
2021/06/26 06:58:23;;;;;;;13.43;12.23;;;28.10;46.40;;;;;;5086387;28;20425;-74
2021/06/26 07:00:51;;;;;;;12.37;11.30;;;28.10;46.40;;;;;;5084800;28;20538;-74
2021/06/26 07:03:19;;;;;;;13.10;12.00;;;28.10;46.40;;;;;;5080280;28;20453;-74
2021/06/26 07:05:50;;;;;;;13.23;12.03;;;28.20;46.30;;;;;;5069175;28;20480;-74
2021/06/26 07:08:18;;;;;;;12.77;11.47;;;28.20;46.20;;;;;;5066509;28;20485;-74
2021/06/26 07:10:47;;;;;;;12.93;11.83;;;28.20;46.30;;;;;;5074196;28;20500;-74
2021/06/26 07:13:15;;;;;;;13.03;11.83;;;28.20;46.20;;;;;;5077768;28;20411;-74
2021/06/26 07:15:44;;;;;;;14.00;12.70;;;28.30;46.30;;;;;;5080882;28;20417;-74
2021/06/26 07:18:13;;;;;;;12.17;11.07;;;28.30;46.30;;;;;;5077000;28;20464;-74
2021/06/26 07:20:40;;;;;;;12.10;10.90;;;28.30;46.20;;;;;;5085854;28;20443;-74
2021/06/26 07:23:08;;;;;;;11.73;10.70;;;28.30;46.30;;;;;;5085033;28;20435;-74
2021/06/26 07:25:36;;;;;;;12.20;11.20;;;28.30;46.20;;;;;;5084544;28;20496;-74
2021/06/26 07:28:06;;;;;;;12.57;11.53;;;28.40;46.10;;;;;;5083813;28;20438;-74
2021/06/26 07:30:34;;;;;;;12.80;11.60;;;28.50;46.10;;;;;;5085216;28;20415;-74
2021/06/26 07:33:02;;;;;;;12.30;11.30;;;28.50;46.10;;;;;;5084873;28;20445;-74
2021/06/26 07:35:31;;;;;;;12.60;11.60;;;28.60;46.10;;;;;;5085665;28;20464;-74
2021/06/26 07:37:59;;;;;;;12.70;11.60;;;28.60;45.80;;;;;;5085225;28;20396;-75
2021/06/26 07:40:29;;;;;;;12.97;11.87;;;28.70;45.90;;;;;;5084572;28;20526;-74
2021/06/26 07:42:57;;;;;;;12.60;11.50;;;28.70;46.10;;;;;;5083751;28;20450;-74
2021/06/26 07:45:26;;;;;;;12.70;11.60;;;28.80;45.80;;;;;;5085057;28;20460;-75
2021/06/26 07:47:55;;;;;;;12.07;11.07;;;28.80;45.90;;;;;;5084840;28;20437;-74
2021/06/26 07:50:23;;;;;;;12.30;11.20;;;29.00;45.80;;;;;;5085103;28;20415;-75
2021/06/26 07:52:51;;;;;;;12.07;11.10;;;29.00;45.60;;;;;;5079283;28;20469;-74
2021/06/26 07:55:19;;;;;;;12.60;11.50;;;29.10;45.80;;;;;;5082891;28;20421;-74
2021/06/26 07:57:46;;;;;;;10.90;10.00;;;29.20;45.90;;;;;;5082008;28;20445;-74
2021/06/26 08:00:16;;;;;;;12.17;11.17;;;29.30;45.70;;;;;;5077532;28;20444;-77
2021/06/26 08:02:45;;;;;;;12.13;11.03;;;29.50;45.60;;;;;;5086762;28;20457;-76
2021/06/26 08:05:13;;;;;;;11.70;10.70;;;29.60;45.30;;;;;;5086964;28;20451;-76
2021/06/26 08:07:52;;;;;;;11.60;10.70;;;29.80;45.00;;;;;;5086403;28;20436;-76
2021/06/26 08:10:20;;;;;;;12.17;11.17;;;29.90;44.80;;;;;;5084785;28;20490;-75
2021/06/26 08:12:48;;;;;;;11.37;10.47;;;29.90;44.70;;;;;;5084830;28;20455;-77
2021/06/26 08:15:17;;;;;;;12.10;11.10;;;30.00;44.70;;;;;;5082215;28;20498;-76
2021/06/26 08:17:46;;;;;;;11.07;10.20;;;30.00;44.70;;;;;;5087237;28;20433;-74
2021/06/26 08:20:14;;;;;;;11.87;10.97;;;30.10;44.50;;;;;;5086964;28;20403;-74
2021/06/26 08:22:45;;;;;;;13.37;12.13;;;30.10;44.60;;;;;;5085625;28;20497;-74
2021/06/26 08:25:13;;;;;;;11.83;10.90;;;30.20;44.30;;;;;;5086235;28;20537;-73
2021/06/26 08:27:43;;;;;;;11.40;10.50;;;30.20;44.30;;;;;;5085918;28;20483;-74
2021/06/26 08:30:12;;;;;;;12.23;11.13;;;30.30;44.20;;;;;;5077337;28;20465;-74
2021/06/26 08:32:42;;;;;;;12.47;11.27;;;30.30;44.40;;;;;;5086126;28;20479;-74
2021/06/26 08:35:12;;;;;;;12.10;11.10;;;30.40;44.60;;;;;;5086151;28;20512;-74
2021/06/26 08:37:40;;;;;;;11.27;10.37;;;30.50;44.40;;;;;;5085771;28;20536;-74
2021/06/26 08:40:08;;;;;;;12.20;11.10;;;30.60;44.20;;;;;;5085949;28;20495;-74
2021/06/26 08:42:36;;;;;;;11.23;10.30;;;30.60;44.10;;;;;;5086874;28;20589;-74
2021/06/26 08:45:06;;;;;;;12.53;10.50;;;30.70;44.20;;;;;;5069325;28;20528;-74
2021/06/26 08:47:34;;;;;;;10.23;9.43;;;30.70;44.20;;;;;;5065565;28;20473;-73
2021/06/26 08:50:02;;;;;;;12.30;11.20;;;30.80;44.20;;;;;;5067487;28;20441;-74
2021/06/26 08:52:32;;;;;;;11.57;10.60;;;30.90;44.10;;;;;;5068027;28;20465;-74
2021/06/26 08:55:00;;;;;;;12.00;10.77;;;31.00;44.10;;;;;;5068692;28;20437;-73
2021/06/26 08:57:29;;;;;;;10.60;9.80;;;31.00;43.90;;;;;;5068305;28;20502;-74
2021/06/26 08:59:58;;;;;;;11.73;10.73;;;31.10;43.90;;;;;;5068349;28;20491;-74
2021/06/26 09:02:26;;;;;;;11.10;10.23;;;31.20;43.90;;;;;;5067993;28;20538;-73
2021/06/26 09:04:54;;;;;;;12.20;11.20;;;31.30;43.60;;;;;;5068356;28;20497;-73
2021/06/26 09:07:28;;;;;;;10.43;9.63;;;31.50;43.80;;;;;;5068340;28;20437;-74
2021/06/26 09:09:58;;;;;;;10.50;9.70;;;31.60;43.50;;;;;;5068571;28;20484;-73
2021/06/26 09:12:27;;;;;;;11.50;10.60;;;31.70;43.10;;;;;;5068172;28;20504;-73
2021/06/26 09:14:55;;;;;;;10.63;9.73;;;31.70;43.20;;;;;;5068136;28;20476;-73
2021/06/26 09:17:30;;;;;;;11.00;10.10;;;31.70;43.20;;;;;;5068392;28;20438;-73
2021/06/26 09:20:00;;;;;;;11.10;10.23;;;31.70;43.20;;;;;;5068234;28;20530;-73
2021/06/26 09:22:36;;;;;;;10.90;9.93;;;31.70;43.20;;;;;;5067809;28;20457;-73
2021/06/26 09:25:07;;;;;;;10.80;9.90;;;31.70;43.20;;;;;;5068060;28;20525;-73
2021/06/26 09:27:35;;;;;;;11.03;10.17;;;31.70;43.10;;;;;;5068060;28;20468;-74
2021/06/26 09:30:03;;;;;;;10.47;9.40;;;31.70;43.20;;;;;;5067794;28;20503;-73
2021/06/26 09:32:31;;;;;;;11.47;10.50;;;31.70;43.10;;;;;;5067786;28;20507;-73
2021/06/26 09:34:59;;;;;;;10.30;9.50;;;31.70;43.10;;;;;;5083482;28;20445;-73
2021/06/26 09:37:28;;;;;;;11.30;10.40;;;31.70;43.10;;;;;;5086670;28;20436;-73
2021/06/26 09:39:57;;;;;;;11.30;10.37;;;31.70;43.20;;;;;;5085353;28;20432;-74
2021/06/26 09:42:27;;;;;;;11.50;9.93;;;31.70;43.20;;;;;;5084964;28;20472;-75
2021/06/26 09:44:56;;;;;;;11.47;10.37;;;31.70;43.10;;;;;;5086303;28;20448;-74
2021/06/26 09:47:31;;;;;;;11.17;10.20;;;31.70;43.20;;;;;;5088208;28;20428;-74
2021/06/26 09:50:15;;;;;;;10.33;9.53;;;31.70;43.20;;;;;;5090073;28;20569;-74
2021/06/26 09:52:45;;;;;;;10.60;9.70;;;31.80;43.80;;;;;;5090883;28;20469;-73
2021/06/26 09:55:15;;;;;;;10.97;10.07;;;31.80;43.20;;;;;;5090549;28;20505;-74
2021/06/26 09:57:45;;;;;;;10.80;10.00;;;31.90;43.80;;;;;;5090308;28;20448;-74
2021/06/26 10:00:15;;;;;;;10.57;9.77;;;31.80;43.00;;;;;;5090449;28;20448;-73
2021/06/26 10:02:44;;;;;;;10.53;9.73;;;31.80;43.00;;;;;;5089732;28;20563;-74
2021/06/26 10:05:12;;;;;;;10.63;9.90;;;31.80;42.90;;;;;;5089884;28;20564;-74
2021/06/26 10:07:40;;;;;;;11.17;10.27;;;31.90;43.00;;;;;;5081069;28;20473;-74
2021/06/26 10:10:11;;;;;;;10.77;9.87;;;31.90;43.10;;;;;;5069786;28;20494;-74
2021/06/26 10:12:39;;;;;;;10.80;10.00;;;31.90;43.10;;;;;;5070802;28;20526;-74
2021/06/26 10:15:09;;;;;;;10.50;9.70;;;31.80;43.00;;;;;;5071215;28;20471;-74
2021/06/26 10:17:38;;;;;;;10.73;9.87;;;31.90;43.10;;;;;;5071733;28;20442;-74
2021/06/26 10:20:11;;;;;;;10.70;9.60;;;31.80;43.00;;;;;;5071630;28;20421;-74
2021/06/26 10:22:39;;;;;;;10.60;9.77;;;31.80;43.10;;;;;;5066784;28;20545;-74
2021/06/26 10:25:09;;;;;;;10.80;10.00;;;31.90;43.20;;;;;;5070235;28;20536;-74
2021/06/26 10:27:36;;;;;;;10.83;10.00;;;31.90;43.10;;;;;;5070180;28;20449;-74
2021/06/26 10:30:16;;;;;;;9.90;9.20;;;31.80;43.10;;;;;;5070843;28;20452;-74
2021/06/26 10:32:54;;;;;;;10.53;9.67;;;31.90;43.10;;;;;;5070863;28;20456;-75
2021/06/26 10:35:27;;;;;;;10.03;9.17;;;32.00;43.10;;;;;;5082621;28;20504;-76
2021/06/26 10:38:06;;;;;;;10.90;10.10;;;32.10;43.10;;;;;;5086149;28;20444;-76
2021/06/26 10:40:36;;;;;;;10.40;9.60;;;32.20;43.00;;;;;;5089811;28;20501;-75
2021/06/26 10:43:24;;;;;;;11.00;9.90;;;32.30;42.60;;;;;;5090532;28;20563;-75
2021/06/26 10:46:07;;;;;;;10.50;9.70;;;32.50;42.60;;;;;;5090331;28;20440;-76
2021/06/26 10:48:36;;;;;;;10.47;9.60;;;32.70;42.60;;;;;;5089368;28;20420;-76
2021/06/26 10:51:07;;;;;;;10.40;9.60;;;33.00;42.40;;;;;;5090995;28;20425;-75
2021/06/26 10:53:36;;;;;;;10.73;9.73;;;33.50;42.20;;;;;;5090758;28;20465;-75
2021/06/26 10:56:06;;;;;;;9.50;8.80;;;33.80;41.20;;;;;;5071202;28;20612;-74
2021/06/26 10:58:36;;;;;;;9.43;8.80;;;34.00;41.00;;;;;;5070295;28;20465;-74
2021/06/26 11:01:16;;;;;;;9.17;8.57;;;34.10;40.80;;;;;;5074734;28;20464;-75
2021/06/26 11:03:44;;;;;;;9.80;8.90;;;34.20;40.50;;;;;;5086940;28;20479;-73
2021/06/26 11:06:20;;;;;;;9.47;8.63;;;34.30;40.50;;;;;;5085388;28;20473;-73
2021/06/26 11:08:56;;;;;;;9.67;8.70;;;34.40;40.40;;;;;;5087101;28;20436;-72
2021/06/26 11:11:35;;;;;;;9.37;8.70;;;34.40;40.30;;;;;;5088806;28;20447;-73
2021/06/26 11:14:10;;;;;;;9.37;8.60;;;34.50;40.20;;;;;;5085211;28;20453;-74
2021/06/26 11:16:40;;;;;;;9.50;8.70;;;34.60;40.20;;;;;;5090380;28;20448;-74
2021/06/26 11:19:08;;;;;;;8.93;8.23;;;34.90;40.10;;;;;;5089569;28;20524;-74
2021/06/26 11:21:44;;;;;;;8.87;8.27;;;35.10;40.00;;;;;;5089203;28;20436;-74
2021/06/26 11:24:15;;;;;;;8.50;7.90;;;35.10;39.50;;;;;;5089039;28;20460;-74
2021/06/26 11:26:47;;;;;;;8.83;8.23;;;35.20;39.60;;;;;;5075795;28;20445;-74
2021/06/26 11:29:35;;;;;;;9.23;8.60;;;35.20;39.60;;;;;;5088995;28;20437;-74
2021/06/26 11:32:06;;;;;;;9.40;8.70;;;35.20;39.40;;;;;;5088984;28;20445;-74
2021/06/26 11:34:34;;;;;;;8.87;8.17;;;35.30;39.30;;;;;;5089747;28;20460;-74
2021/06/26 11:37:07;;;;;;;8.33;7.83;;;35.30;39.20;;;;;;5089668;28;20428;-74
2021/06/26 11:39:35;;;;;;;8.43;7.93;;;35.40;39.30;;;;;;5089782;28;20566;-74
2021/06/26 11:42:14;;;;;;;8.50;7.90;;;35.20;39.20;;;;;;5089279;28;20436;-74
2021/06/26 11:44:41;;;;;;;9.27;8.43;;;35.20;39.30;;;;;;5090115;28;20451;-74
2021/06/26 11:47:11;;;;;;;8.53;7.93;;;35.10;39.50;;;;;;5090083;28;20531;-74
2021/06/26 11:49:41;;;;;;;8.87;8.27;;;35.00;39.40;;;;;;5089290;28;20445;-74
2021/06/26 11:52:10;;;;;;;9.20;8.50;;;34.90;39.70;;;;;;5087888;28;20461;-74
2021/06/26 11:54:38;;;;;;;8.13;7.53;;;34.80;39.80;;;;;;5089093;28;20441;-74
2021/06/26 11:57:08;;;;;;;9.63;8.73;;;34.70;40.00;;;;;;5088558;28;20483;-74
2021/06/26 11:59:43;;;;;;;9.00;8.40;;;34.70;40.10;;;;;;5089476;28;20455;-74
2021/06/26 12:02:13;;;;;;;9.00;8.30;;;34.60;40.20;;;;;;5089593;28;20429;-74
2021/06/26 12:04:41;;;;;;;8.87;8.07;;;34.50;40.20;;;;;;5089918;28;20529;-74
2021/06/26 12:07:09;;;;;;;8.93;8.23;;;34.50;40.30;;;;;;5089472;28;20528;-74
2021/06/26 12:09:38;;;;;;;11.90;10.63;;;34.50;40.40;;;;;;5089907;28;20429;-73
2021/06/26 12:12:07;;;;;;;12.07;10.80;;;34.10;37.70;;;;;;5078724;28;20475;-73
2021/06/26 12:14:35;;;;;;;11.53;10.53;;;33.30;38.90;;;;;;5069357;28;20433;-73
2021/06/26 12:17:07;;;;;;;11.60;10.60;;;33.00;40.10;;;;;;5066672;28;20525;-73
2021/06/26 12:19:39;;;;;;;11.00;9.90;;;32.80;40.50;;;;;;5066288;28;20465;-73
2021/06/26 12:22:07;;;;;;;15.00;13.10;;;32.80;40.80;;;;;;5065980;28;20499;-73
2021/06/26 12:24:36;;;;;;;13.30;11.80;;;32.80;40.30;;;;;;5086406;28;20468;-73
2021/06/26 12:27:06;;;;;;;16.43;13.30;;;32.60;41.40;;;;;;5086604;28;20497;-73
2021/06/26 12:29:34;;;;;;;17.30;13.13;;;32.90;41.80;;;;;;5088109;28;20520;-75
2021/06/26 12:32:03;;;;;;;14.93;13.43;;;33.00;41.20;;;;;;5085957;28;20516;-73
2021/06/26 12:34:31;;;;;;;16.33;14.60;;;33.50;41.40;;;;;;5086225;28;20516;-74
2021/06/26 12:37:00;;;;;;;15.70;13.20;;;33.90;40.10;;;;;;5080556;28;20506;-74
2021/06/26 12:39:33;;;;;;;23.93;16.70;;;33.50;39.90;;;;;;5070577;28;20430;-73